createdAt,value
2018-12-22T00:00:42.000Z,99392
2018-12-22T00:02:42.000Z,99396
2018-12-22T00:04:42.000Z,99392
2018-12-22T00:06:26.000Z,99403
2018-12-22T00:07:42.000Z,99409
2018-12-22T00:08:42.000Z,99403
2018-12-22T00:10:42.000Z,99398
2018-12-22T00:12:42.000Z,99407
2018-12-22T00:14:11.000Z,99399
2018-12-22T00:15:42.000Z,99403
2018-12-22T00:17:42.000Z,99402
2018-12-22T00:18:42.000Z,99405
2018-12-22T00:20:42.000Z,99389
2018-12-22T00:22:27.000Z,99396
2018-12-22T00:24:42.000Z,99399
2018-12-22T00:26:42.000Z,99404
2018-12-22T00:28:42.000Z,99405
2018-12-22T00:30:42.000Z,99405
2018-12-22T00:31:42.000Z,99410
2018-12-22T00:33:42.000Z,99408
2018-12-22T00:35:26.000Z,99405
2018-12-22T00:36:42.000Z,99409
2018-12-22T00:38:42.000Z,99405
2018-12-22T00:40:42.000Z,99410
2018-12-22T00:41:42.000Z,99416
2018-12-22T00:43:27.000Z,99410
2018-12-22T00:44:42.000Z,99423
2018-12-22T00:45:42.000Z,99416
2018-12-22T00:47:42.000Z,99419
2018-12-22T00:48:42.000Z,99415
2018-12-22T00:50:42.000Z,99413
2018-12-22T00:51:42.000Z,99415
2018-12-22T00:53:42.000Z,99418
2018-12-22T00:55:42.000Z,99419
2018-12-22T00:57:42.000Z,99415
2018-12-22T00:59:42.000Z,99424
2018-12-22T01:01:42.000Z,99420
2018-12-22T01:02:42.000Z,99420
2018-12-22T01:03:42.000Z,99413
2018-12-22T01:04:42.000Z,99416
2018-12-22T01:06:42.000Z,99417
2018-12-22T01:08:42.000Z,99421
2018-12-22T01:09:42.000Z,99417
2018-12-22T01:11:42.000Z,99427
2018-12-22T01:12:42.000Z,99420
2018-12-22T01:14:42.000Z,99424
2018-12-22T01:16:42.000Z,99422
2018-12-22T01:18:42.000Z,99424
2018-12-22T01:19:42.000Z,99419
2018-12-22T01:21:42.000Z,99432
2018-12-22T01:23:42.000Z,99426
2018-12-22T01:25:42.000Z,99427
2018-12-22T01:27:42.000Z,99427
2018-12-22T01:29:42.000Z,99422
2018-12-22T01:30:42.000Z,99423
2018-12-22T01:32:11.000Z,99423
2018-12-22T01:33:42.000Z,99423
2018-12-22T01:34:42.000Z,99423
2018-12-22T01:36:42.000Z,99424
2018-12-22T01:38:42.000Z,99427
2018-12-22T01:40:42.000Z,99437
2018-12-22T01:41:42.000Z,99436
2018-12-22T01:43:42.000Z,99435
2018-12-22T01:45:42.000Z,99435
2018-12-22T01:46:42.000Z,99439
2018-12-22T01:47:42.000Z,99437
2018-12-22T01:49:27.000Z,99434
2018-12-22T01:50:42.000Z,99427
2018-12-22T01:52:42.000Z,99433
2018-12-22T01:54:42.000Z,99434
2018-12-22T01:56:42.000Z,99437
2018-12-22T01:57:42.000Z,99441
2018-12-22T01:59:42.000Z,99434
2018-12-22T02:00:42.000Z,99444
2018-12-22T02:01:42.000Z,99443
2018-12-22T02:03:42.000Z,99439
2018-12-22T02:05:27.000Z,99435
2018-12-22T02:06:42.000Z,99440
2018-12-22T02:08:27.000Z,99434
2018-12-22T02:09:42.000Z,99429
2018-12-22T02:10:42.000Z,99433
2018-12-22T02:11:42.000Z,99430
2018-12-22T02:13:42.000Z,99419
2018-12-22T02:14:42.000Z,99427
2018-12-22T02:15:42.000Z,99431
2018-12-22T02:17:42.000Z,99425
2018-12-22T02:18:42.000Z,99425
2018-12-22T02:20:42.000Z,99422
2018-12-22T02:21:42.000Z,99427
2018-12-22T02:23:42.000Z,99426
2018-12-22T02:25:42.000Z,99417
2018-12-22T02:26:42.000Z,99420
2018-12-22T02:27:42.000Z,99421
2018-12-22T02:29:42.000Z,99416
2018-12-22T02:30:42.000Z,99413
2018-12-22T02:32:27.000Z,99417
2018-12-22T02:33:42.000Z,99418
2018-12-22T02:35:42.000Z,99416
2018-12-22T02:36:42.000Z,99407
2018-12-22T02:38:27.000Z,99413
2018-12-22T02:39:42.000Z,99414
2018-12-22T02:40:42.000Z,99411
2018-12-22T02:41:42.000Z,99410
2018-12-22T02:43:42.000Z,99414
2018-12-22T02:44:42.000Z,99408
2018-12-22T02:46:42.000Z,99400
2018-12-22T02:47:42.000Z,99398
2018-12-22T02:49:42.000Z,99394
2018-12-22T02:51:42.000Z,99395
2018-12-22T02:52:42.000Z,99396
2018-12-22T02:54:42.000Z,99394
2018-12-22T02:55:42.000Z,99402
2018-12-22T02:57:26.000Z,99394
2018-12-22T02:58:42.000Z,99392
2018-12-22T03:00:42.000Z,99385
2018-12-22T03:02:26.000Z,99386
2018-12-22T03:03:42.000Z,99384
2018-12-22T03:05:26.000Z,99378
2018-12-22T03:06:42.000Z,99371
2018-12-22T03:08:42.000Z,99375
2018-12-22T03:09:42.000Z,99374
2018-12-22T03:11:42.000Z,99376
2018-12-22T03:13:42.000Z,99364
2018-12-22T03:14:42.000Z,99368
2018-12-22T03:15:42.000Z,99363
2018-12-22T03:17:42.000Z,99359
2018-12-22T03:19:42.000Z,99361
2018-12-22T03:21:42.000Z,99358
2018-12-22T03:23:42.000Z,99351
2018-12-22T03:24:42.000Z,99348
2018-12-22T03:25:42.000Z,99345
2018-12-22T03:27:11.000Z,99338
2018-12-22T03:28:42.000Z,99337
2018-12-22T03:30:42.000Z,99328
2018-12-22T03:31:42.000Z,99325
2018-12-22T03:33:42.000Z,99321
2018-12-22T03:35:42.000Z,99316
2018-12-22T03:36:42.000Z,99318
2018-12-22T03:38:42.000Z,99319
2018-12-22T03:40:42.000Z,99309
2018-12-22T03:42:42.000Z,99298
2018-12-22T03:43:42.000Z,99297
2018-12-22T03:45:42.000Z,99296
2018-12-22T03:47:42.000Z,99295
2018-12-22T03:48:42.000Z,99290
2018-12-22T03:50:41.000Z,99283
2018-12-22T03:51:41.000Z,99278
2018-12-22T03:53:41.000Z,99272
2018-12-22T03:55:42.000Z,99276
2018-12-22T03:57:41.000Z,99273
2018-12-22T03:59:41.000Z,99273
2018-12-22T04:01:41.000Z,99282
2018-12-22T04:02:41.000Z,99291
2018-12-22T04:04:26.000Z,99284
2018-12-22T04:05:41.000Z,99287
2018-12-22T04:07:41.000Z,99301
2018-12-22T04:09:41.000Z,99297
2018-12-22T04:11:41.000Z,99291
2018-12-22T04:13:26.000Z,99285
2018-12-22T04:14:41.000Z,99270
2018-12-22T04:15:41.000Z,99275
2018-12-22T04:17:26.000Z,99284
2018-12-22T04:18:42.000Z,99283
2018-12-22T04:19:42.000Z,99284
2018-12-22T04:21:42.000Z,99265
2018-12-22T04:23:41.000Z,99254
2018-12-22T04:25:41.000Z,99254
2018-12-22T04:27:41.000Z,99248
2018-12-22T04:29:27.000Z,99248
2018-12-22T04:31:41.000Z,99248
2018-12-22T04:33:41.000Z,99243
2018-12-22T04:35:41.000Z,99248
2018-12-22T04:37:41.000Z,99253
2018-12-22T04:38:42.000Z,99242
2018-12-22T04:40:26.000Z,99236
2018-12-22T04:42:41.000Z,99242
2018-12-22T04:43:41.000Z,99246
2018-12-22T04:45:42.000Z,99246
2018-12-22T04:47:41.000Z,99247
2018-12-22T04:49:42.000Z,99249
2018-12-22T04:51:41.000Z,99261
2018-12-22T04:53:42.000Z,99243
2018-12-22T04:55:42.000Z,99249
2018-12-22T04:57:42.000Z,99250
2018-12-22T04:59:42.000Z,99241
2018-12-22T05:01:27.000Z,99254
2018-12-22T05:02:42.000Z,99251
2018-12-22T05:04:12.000Z,99258
2018-12-22T05:05:42.000Z,99251
2018-12-22T05:06:42.000Z,99261
2018-12-22T05:07:42.000Z,99256
2018-12-22T05:09:42.000Z,99267
2018-12-22T05:11:42.000Z,99261
2018-12-22T05:12:42.000Z,99264
2018-12-22T05:14:42.000Z,99261
2018-12-22T05:16:42.000Z,99271
2018-12-22T05:18:42.000Z,99276
2018-12-22T05:19:42.000Z,99291
2018-12-22T05:20:42.000Z,99273
2018-12-22T05:22:42.000Z,99266
2018-12-22T05:24:42.000Z,99269
2018-12-22T05:26:27.000Z,99281
2018-12-22T05:27:42.000Z,99280
2018-12-22T05:29:42.000Z,99278
2018-12-22T05:31:42.000Z,99293
2018-12-22T05:33:42.000Z,99300
2018-12-22T05:34:42.000Z,99302
2018-12-22T05:35:42.000Z,99286
2018-12-22T05:37:42.000Z,99295
2018-12-22T05:39:27.000Z,99295
2018-12-22T05:40:42.000Z,99298
2018-12-22T05:42:42.000Z,99314
2018-12-22T05:44:42.000Z,99321
2018-12-22T05:45:42.000Z,99310
2018-12-22T05:46:42.000Z,99314
2018-12-22T05:48:42.000Z,99325
2018-12-22T05:50:12.000Z,99322
2018-12-22T05:51:42.000Z,99323
2018-12-22T05:52:42.000Z,99323
2018-12-22T05:53:42.000Z,99329
2018-12-22T05:55:42.000Z,99341
2018-12-22T05:57:42.000Z,99329
2018-12-22T05:59:42.000Z,99337
2018-12-22T06:01:42.000Z,99348
2018-12-22T06:03:42.000Z,99353
2018-12-22T06:05:42.000Z,99356
2018-12-22T06:07:42.000Z,99353
2018-12-22T06:09:42.000Z,99359
2018-12-22T06:10:42.000Z,99364
2018-12-22T06:12:42.000Z,99372
2018-12-22T06:14:42.000Z,99364
2018-12-22T06:15:42.000Z,99355
2018-12-22T06:16:42.000Z,99367
2018-12-22T06:18:42.000Z,99358
2018-12-22T06:20:42.000Z,99369
2018-12-22T06:21:42.000Z,99379
2018-12-22T06:23:27.000Z,99382
2018-12-22T06:24:42.000Z,99378
2018-12-22T06:26:42.000Z,99392
2018-12-22T06:28:42.000Z,99383
2018-12-22T06:30:11.000Z,99387
2018-12-22T06:31:42.000Z,99395
2018-12-22T06:33:42.000Z,99396
2018-12-22T06:35:42.000Z,99392
2018-12-22T06:36:42.000Z,99398
2018-12-22T06:37:42.000Z,99395
2018-12-22T06:39:42.000Z,99397
2018-12-22T06:40:42.000Z,99396
2018-12-22T06:42:42.000Z,99405
2018-12-22T06:44:42.000Z,99398
2018-12-22T06:46:42.000Z,99412
2018-12-22T06:48:42.000Z,99412
2018-12-22T06:50:42.000Z,99418
2018-12-22T06:52:27.000Z,99422
2018-12-22T06:53:27.000Z,99409
2018-12-22T06:54:42.000Z,99418
2018-12-22T06:56:42.000Z,99427
2018-12-22T06:57:42.000Z,99422
2018-12-22T06:59:42.000Z,99440
2018-12-22T07:01:42.000Z,99433
2018-12-22T07:02:42.000Z,99447
2018-12-22T07:04:42.000Z,99445
2018-12-22T07:06:42.000Z,99449
2018-12-22T07:07:42.000Z,99462
2018-12-22T07:09:42.000Z,99477
2018-12-22T07:11:42.000Z,99474
2018-12-22T07:13:42.000Z,99475
2018-12-22T07:14:42.000Z,99473
2018-12-22T07:16:42.000Z,99486
2018-12-22T07:18:42.000Z,99493
2018-12-22T07:20:42.000Z,99504
2018-12-22T07:21:42.000Z,99509
2018-12-22T07:23:42.000Z,99513
2018-12-22T07:24:42.000Z,99506
2018-12-22T07:26:42.000Z,99518
2018-12-22T07:28:26.000Z,99525
2018-12-22T07:29:42.000Z,99525
2018-12-22T07:31:26.000Z,99540
2018-12-22T07:32:42.000Z,99541
2018-12-22T07:34:42.000Z,99548
2018-12-22T07:35:42.000Z,99550
2018-12-22T07:37:42.000Z,99552
2018-12-22T07:39:42.000Z,99550
2018-12-22T07:41:42.000Z,99548
2018-12-22T07:43:11.000Z,99559
2018-12-22T07:44:42.000Z,99567
2018-12-22T07:46:42.000Z,99563
2018-12-22T07:48:42.000Z,99571
2018-12-22T07:49:42.000Z,99576
2018-12-22T07:51:42.000Z,99575
2018-12-22T07:52:42.000Z,99576
2018-12-22T07:54:26.000Z,99580
2018-12-22T07:55:42.000Z,99578
2018-12-22T07:57:42.000Z,99591
2018-12-22T07:59:27.000Z,99588
2018-12-22T08:00:27.000Z,99590
2018-12-22T08:02:42.000Z,99601
2018-12-22T08:04:42.000Z,99597
2018-12-22T08:06:42.000Z,99604
2018-12-22T08:08:27.000Z,99603
2018-12-22T08:09:42.000Z,99610
2018-12-22T08:11:42.000Z,99632
2018-12-22T08:13:42.000Z,99628
2018-12-22T08:15:42.000Z,99635
2018-12-22T08:17:42.000Z,99644
2018-12-22T08:19:42.000Z,99640
2018-12-22T08:21:27.000Z,99642
2018-12-22T08:22:42.000Z,99640
2018-12-22T08:24:42.000Z,99658
2018-12-22T08:26:42.000Z,99643
2018-12-22T08:27:42.000Z,99651
2018-12-22T08:29:42.000Z,99659
2018-12-22T08:30:42.000Z,99657
2018-12-22T08:32:42.000Z,99677
2018-12-22T08:34:42.000Z,99676
2018-12-22T08:36:42.000Z,99682
2018-12-22T08:38:42.000Z,99677
2018-12-22T08:39:42.000Z,99692
2018-12-22T08:40:42.000Z,99694
2018-12-22T08:42:12.000Z,99693
2018-12-22T08:43:42.000Z,99708
2018-12-22T08:45:42.000Z,99712
2018-12-22T08:47:42.000Z,99704
2018-12-22T08:49:42.000Z,99712
2018-12-22T08:50:42.000Z,99711
2018-12-22T08:52:42.000Z,99727
2018-12-22T08:54:27.000Z,99726
2018-12-22T08:55:42.000Z,99730
2018-12-22T08:57:42.000Z,99738
2018-12-22T08:58:42.000Z,99741
2018-12-22T09:00:42.000Z,99754
2018-12-22T09:02:42.000Z,99766
2018-12-22T09:04:12.000Z,99774
2018-12-22T09:05:42.000Z,99784
2018-12-22T09:07:42.000Z,99786
2018-12-22T09:09:42.000Z,99784
2018-12-22T09:10:42.000Z,99798
2018-12-22T09:12:42.000Z,99807
2018-12-22T09:14:42.000Z,99812
2018-12-22T09:16:42.000Z,99815
2018-12-22T09:17:42.000Z,99818
2018-12-22T09:19:11.000Z,99832
2018-12-22T09:20:42.000Z,99835
2018-12-22T09:22:42.000Z,99836
2018-12-22T09:24:42.000Z,99838
2018-12-22T09:26:42.000Z,99835
2018-12-22T09:28:42.000Z,99846
2018-12-22T09:30:42.000Z,99845
2018-12-22T09:32:11.000Z,99863
2018-12-22T09:33:42.000Z,99864
2018-12-22T09:35:42.000Z,99870
2018-12-22T09:36:42.000Z,99876
2018-12-22T09:37:42.000Z,99879
2018-12-22T09:39:42.000Z,99879
2018-12-22T09:41:42.000Z,99893
2018-12-22T09:43:42.000Z,99896
2018-12-22T09:45:42.000Z,99902
2018-12-22T09:47:42.000Z,99908
2018-12-22T09:49:42.000Z,99903
2018-12-22T09:51:42.000Z,99910
2018-12-22T09:53:42.000Z,99907
2018-12-22T09:55:42.000Z,99924
2018-12-22T09:56:42.000Z,99918
2018-12-22T09:58:42.000Z,99913
2018-12-22T09:59:42.000Z,99913
2018-12-22T10:01:42.000Z,99913
2018-12-22T10:03:42.000Z,99912
2018-12-22T10:05:42.000Z,99925
2018-12-22T10:06:42.000Z,99922
2018-12-22T10:08:42.000Z,99922
2018-12-22T10:10:42.000Z,99923
2018-12-22T10:12:42.000Z,99929
2018-12-22T10:14:42.000Z,99933
2018-12-22T10:16:42.000Z,99945
2018-12-22T10:17:42.000Z,99940
2018-12-22T10:18:42.000Z,99943
2018-12-22T10:20:27.000Z,99945
2018-12-22T10:22:42.000Z,99946
2018-12-22T10:24:42.000Z,99948
2018-12-22T10:26:42.000Z,99949
2018-12-22T10:28:42.000Z,99951
2018-12-22T10:30:11.000Z,99954
2018-12-22T10:31:12.000Z,99960
2018-12-22T10:32:42.000Z,99958
2018-12-22T10:33:42.000Z,99966
2018-12-22T10:35:42.000Z,99968
2018-12-22T10:37:42.000Z,99968
2018-12-22T10:39:42.000Z,99969
2018-12-22T10:40:42.000Z,99972
2018-12-22T10:42:42.000Z,99971
2018-12-22T10:44:42.000Z,99972
2018-12-22T10:46:42.000Z,99978
2018-12-22T10:48:42.000Z,99987
2018-12-22T10:50:42.000Z,99991
2018-12-22T10:52:42.000Z,99993
2018-12-22T10:54:42.000Z,99990
2018-12-22T10:55:42.000Z,99986
2018-12-22T10:57:27.000Z,99983
2018-12-22T10:58:42.000Z,99988
2018-12-22T10:59:42.000Z,99980
2018-12-22T11:01:27.000Z,99984
2018-12-22T11:02:42.000Z,99986
2018-12-22T11:04:11.000Z,99982
2018-12-22T11:05:42.000Z,99985
2018-12-22T11:06:42.000Z,99987
2018-12-22T11:08:42.000Z,99994
2018-12-22T11:10:42.000Z,99992
2018-12-22T11:12:42.000Z,99989
2018-12-22T11:14:42.000Z,99992
2018-12-22T11:16:42.000Z,99990
2018-12-22T11:18:42.000Z,99995
2018-12-22T11:20:42.000Z,99994
2018-12-22T11:22:42.000Z,99983
2018-12-22T11:24:42.000Z,99983
2018-12-22T11:26:42.000Z,99990
2018-12-22T11:28:27.000Z,99986
2018-12-22T11:29:42.000Z,99988
2018-12-22T11:31:27.000Z,99985
2018-12-22T11:33:42.000Z,99990
2018-12-22T11:34:42.000Z,99984
2018-12-22T11:36:42.000Z,99988
2018-12-22T11:37:42.000Z,99982
2018-12-22T11:38:42.000Z,99978
2018-12-22T11:40:42.000Z,99977
2018-12-22T11:42:42.000Z,99976
2018-12-22T11:44:27.000Z,99986
2018-12-22T11:45:42.000Z,99980
2018-12-22T11:46:42.000Z,99980
2018-12-22T11:47:42.000Z,99974
2018-12-22T11:49:42.000Z,99992
2018-12-22T11:50:42.000Z,99985
2018-12-22T11:52:42.000Z,99990
2018-12-22T11:54:42.000Z,99994
2018-12-22T11:56:42.000Z,99986
2018-12-22T11:57:42.000Z,99985
2018-12-22T11:59:42.000Z,99980
2018-12-22T12:00:42.000Z,99985
2018-12-22T12:02:42.000Z,99981
2018-12-22T12:04:42.000Z,99984
2018-12-22T12:06:42.000Z,99993
2018-12-22T12:08:27.000Z,99980
2018-12-22T12:09:42.000Z,99994
2018-12-22T12:11:12.000Z,99998
2018-12-22T12:12:42.000Z,100009
2018-12-22T12:14:42.000Z,100021
2018-12-22T12:16:42.000Z,100016
2018-12-22T12:18:42.000Z,100020
2018-12-22T12:20:42.000Z,100021
2018-12-22T12:22:42.000Z,100016
2018-12-22T12:24:42.000Z,100024
2018-12-22T12:25:42.000Z,100030
2018-12-22T12:26:42.000Z,100038
2018-12-22T12:27:42.000Z,100032
2018-12-22T12:29:42.000Z,100031
2018-12-22T12:30:42.000Z,100046
2018-12-22T12:32:42.000Z,100042
2018-12-22T12:34:42.000Z,100064
2018-12-22T12:35:42.000Z,100067
2018-12-22T12:37:42.000Z,100064
2018-12-22T12:39:42.000Z,100065
2018-12-22T12:41:42.000Z,100054
2018-12-22T12:43:42.000Z,100051
2018-12-22T12:45:26.000Z,100064
2018-12-22T12:46:42.000Z,100067
2018-12-22T12:47:42.000Z,100068
2018-12-22T12:49:26.000Z,100075
2018-12-22T12:50:42.000Z,100075
2018-12-22T12:52:42.000Z,100071
2018-12-22T12:54:42.000Z,100074
2018-12-22T12:55:42.000Z,100078
2018-12-22T12:57:42.000Z,100080
2018-12-22T12:59:42.000Z,100085
2018-12-22T13:01:42.000Z,100070
2018-12-22T13:03:26.000Z,100064
2018-12-22T13:04:42.000Z,100066
2018-12-22T13:06:42.000Z,100066
2018-12-22T13:07:42.000Z,100069
2018-12-22T13:09:12.000Z,100066
2018-12-22T13:10:42.000Z,100071
2018-12-22T13:11:42.000Z,100075
2018-12-22T13:13:42.000Z,100078
2018-12-22T13:15:42.000Z,100085
2018-12-22T13:17:42.000Z,100083
2018-12-22T13:18:42.000Z,100079
2018-12-22T13:20:42.000Z,100090
2018-12-22T13:22:42.000Z,100087
2018-12-22T13:24:43.000Z,100092
2018-12-22T13:26:28.000Z,100097
2018-12-22T13:28:27.000Z,100090
2018-12-22T13:29:43.000Z,100091
2018-12-22T13:30:43.000Z,100096
2018-12-22T13:32:43.000Z,100099
2018-12-22T13:34:27.000Z,100096
2018-12-22T13:35:43.000Z,100104
2018-12-22T13:37:27.000Z,100099
2018-12-22T13:38:43.000Z,100101
2018-12-22T13:39:43.000Z,100090
2018-12-22T13:41:42.000Z,100103
2018-12-22T13:43:42.000Z,100098
2018-12-22T13:44:43.000Z,100107
2018-12-22T13:45:43.000Z,100105
2018-12-22T13:47:43.000Z,100100
2018-12-22T13:49:13.000Z,100102
2018-12-22T13:51:42.000Z,100104
2018-12-22T13:53:43.000Z,100108
2018-12-22T13:55:43.000Z,100103
2018-12-22T13:57:43.000Z,100112
2018-12-22T13:58:43.000Z,100120
2018-12-22T14:00:43.000Z,100122
2018-12-22T14:02:13.000Z,100121
2018-12-22T14:03:43.000Z,100129
2018-12-22T14:05:43.000Z,100137
2018-12-22T14:07:43.000Z,100139
2018-12-22T14:08:43.000Z,100128
2018-12-22T14:10:43.000Z,100141
2018-12-22T14:12:27.000Z,100139
2018-12-22T14:13:43.000Z,100143
2018-12-22T14:15:43.000Z,100147
2018-12-22T14:17:43.000Z,100150
2018-12-22T14:19:43.000Z,100160
2018-12-22T14:21:43.000Z,100163
2018-12-22T14:23:43.000Z,100164
2018-12-22T14:24:43.000Z,100162
2018-12-22T14:26:43.000Z,100167
2018-12-22T14:28:43.000Z,100175
2018-12-22T14:29:42.000Z,100176
2018-12-22T14:31:42.000Z,100176
2018-12-22T14:33:42.000Z,100177
2018-12-22T14:35:42.000Z,100174
2018-12-22T14:36:42.000Z,100181
2018-12-22T14:38:27.000Z,100192
2018-12-22T14:39:42.000Z,100199
2018-12-22T14:41:42.000Z,100201
2018-12-22T14:43:42.000Z,100202
2018-12-22T14:45:42.000Z,100220
2018-12-22T14:47:42.000Z,100214
2018-12-22T14:49:42.000Z,100215
2018-12-22T14:51:42.000Z,100208
2018-12-22T14:53:42.000Z,100229
2018-12-22T14:55:42.000Z,100230
2018-12-22T14:57:42.000Z,100228
2018-12-22T14:59:42.000Z,100234
2018-12-22T15:00:42.000Z,100245
2018-12-22T15:02:27.000Z,100230
2018-12-22T15:04:42.000Z,100235
2018-12-22T15:05:42.000Z,100229
2018-12-22T15:07:26.000Z,100243
2018-12-22T15:08:42.000Z,100243
2018-12-22T15:10:42.000Z,100242
2018-12-22T15:11:42.000Z,100239
2018-12-22T15:12:42.000Z,100237
2018-12-22T15:14:42.000Z,100246
2018-12-22T15:16:26.000Z,100245
2018-12-22T15:17:42.000Z,100249
2018-12-22T15:19:42.000Z,100254
2018-12-22T15:21:42.000Z,100258
2018-12-22T15:23:42.000Z,100260
2018-12-22T15:24:42.000Z,100265
2018-12-22T15:26:42.000Z,100265
2018-12-22T15:27:42.000Z,100267
2018-12-22T15:29:42.000Z,100269
2018-12-22T15:31:26.000Z,100271
2018-12-22T15:32:42.000Z,100273
2018-12-22T15:34:42.000Z,100272
2018-12-22T15:36:42.000Z,100279
2018-12-22T15:37:42.000Z,100282
2018-12-22T15:38:42.000Z,100282
2018-12-22T15:40:42.000Z,100284
2018-12-22T15:42:42.000Z,100282
2018-12-22T15:43:42.000Z,100290
2018-12-22T15:45:42.000Z,100291
2018-12-22T15:46:42.000Z,100293
2018-12-22T15:48:42.000Z,100290
2018-12-22T15:50:42.000Z,100289
2018-12-22T15:52:42.000Z,100284
2018-12-22T15:53:42.000Z,100289
2018-12-22T15:55:42.000Z,100287
2018-12-22T15:57:42.000Z,100289
2018-12-22T15:59:42.000Z,100289
2018-12-22T16:00:42.000Z,100293
2018-12-22T16:02:27.000Z,100296
2018-12-22T16:03:42.000Z,100292
2018-12-22T16:04:42.000Z,100295
2018-12-22T16:06:42.000Z,100303
2018-12-22T16:08:42.000Z,100308
2018-12-22T16:10:42.000Z,100309
2018-12-22T16:12:42.000Z,100309
2018-12-22T16:13:42.000Z,100306
2018-12-22T16:15:42.000Z,100311
2018-12-22T16:17:42.000Z,100316
2018-12-22T16:19:42.000Z,100316
2018-12-22T16:21:42.000Z,100319
2018-12-22T16:22:42.000Z,100321
2018-12-22T16:24:27.000Z,100325
2018-12-22T16:26:42.000Z,100330
2018-12-22T16:28:42.000Z,100335
2018-12-22T16:30:42.000Z,100335
2018-12-22T16:32:27.000Z,100341
2018-12-22T16:33:42.000Z,100331
2018-12-22T16:35:42.000Z,100334
2018-12-22T16:36:42.000Z,100340
2018-12-22T16:38:27.000Z,100342
2018-12-22T16:39:42.000Z,100342
2018-12-22T16:41:27.000Z,100350
2018-12-22T16:42:42.000Z,100348
2018-12-22T16:44:42.000Z,100351
2018-12-22T16:45:42.000Z,100347
2018-12-22T16:47:42.000Z,100351
2018-12-22T16:48:42.000Z,100353
2018-12-22T16:50:42.000Z,100352
2018-12-22T16:51:42.000Z,100351
2018-12-22T16:53:42.000Z,100354
2018-12-22T16:55:42.000Z,100359
2018-12-22T16:56:42.000Z,100360
2018-12-22T16:58:42.000Z,100365
2018-12-22T17:00:42.000Z,100366
2018-12-22T17:01:42.000Z,100369
2018-12-22T17:02:42.000Z,100367
2018-12-22T17:04:12.000Z,100379
2018-12-22T17:05:42.000Z,100391
2018-12-22T17:07:42.000Z,100384
2018-12-22T17:09:42.000Z,100383
2018-12-22T17:11:42.000Z,100382
2018-12-22T17:12:42.000Z,100390
2018-12-22T17:14:12.000Z,100387
2018-12-22T17:15:13.000Z,100387
2018-12-22T17:16:42.000Z,100387
2018-12-22T17:17:42.000Z,100389
2018-12-22T17:19:42.000Z,100383
2018-12-22T17:21:42.000Z,100384
2018-12-22T17:22:42.000Z,100385
2018-12-22T17:24:27.000Z,100382
2018-12-22T17:25:42.000Z,100379
2018-12-22T17:27:42.000Z,100380
2018-12-22T17:29:27.000Z,100393
2018-12-22T17:30:42.000Z,100397
2018-12-22T17:32:42.000Z,100404
2018-12-22T17:34:42.000Z,100406
2018-12-22T17:35:42.000Z,100407
2018-12-22T17:37:42.000Z,100408
2018-12-22T17:39:27.000Z,100416
2018-12-22T17:41:28.000Z,100411
2018-12-22T17:42:43.000Z,100416
2018-12-22T17:44:43.000Z,100419
2018-12-22T17:46:42.000Z,100425
2018-12-22T17:47:43.000Z,100422
2018-12-22T17:48:43.000Z,100423
2018-12-22T17:50:43.000Z,100432
2018-12-22T17:52:43.000Z,100437
2018-12-22T17:53:43.000Z,100436
2018-12-22T17:55:43.000Z,100447
2018-12-22T17:56:43.000Z,100450
2018-12-22T17:57:43.000Z,100456
2018-12-22T17:59:43.000Z,100462
2018-12-22T18:01:43.000Z,100466
2018-12-22T18:02:43.000Z,100461
2018-12-22T18:04:43.000Z,100464
2018-12-22T18:06:28.000Z,100465
2018-12-22T18:08:43.000Z,100459
2018-12-22T18:10:43.000Z,100477
2018-12-22T18:12:43.000Z,100473
2018-12-22T18:14:27.000Z,100481
2018-12-22T18:15:43.000Z,100479
2018-12-22T18:16:43.000Z,100486
2018-12-22T18:18:43.000Z,100490
2018-12-22T18:20:27.000Z,100491
2018-12-22T18:21:43.000Z,100485
2018-12-22T18:22:43.000Z,100480
2018-12-22T18:24:43.000Z,100479
2018-12-22T18:25:43.000Z,100485
2018-12-22T18:27:43.000Z,100484
2018-12-22T18:29:43.000Z,100485
2018-12-22T18:30:43.000Z,100491
2018-12-22T18:31:43.000Z,100488
2018-12-22T18:33:28.000Z,100493
2018-12-22T18:35:27.000Z,100497
2018-12-22T18:36:43.000Z,100500
2018-12-22T18:38:43.000Z,100518
2018-12-22T18:39:43.000Z,100534
2018-12-22T18:41:43.000Z,100511
2018-12-22T18:43:43.000Z,100506
2018-12-22T18:45:27.000Z,100513
2018-12-22T18:46:27.000Z,100509
2018-12-22T18:47:27.000Z,100507
2018-12-22T18:49:27.000Z,100507
2018-12-22T18:50:27.000Z,100502
2018-12-22T18:51:42.000Z,100505
2018-12-22T18:53:42.000Z,100499
2018-12-22T18:55:42.000Z,100503
2018-12-22T18:57:42.000Z,100511
2018-12-22T18:59:42.000Z,100500
2018-12-22T19:01:27.000Z,100501
2018-12-22T19:02:42.000Z,100501
2018-12-22T19:04:42.000Z,100503
2018-12-22T19:06:27.000Z,100504
2018-12-22T19:07:42.000Z,100507
2018-12-22T19:09:42.000Z,100502
2018-12-22T19:11:27.000Z,100505
2018-12-22T19:12:42.000Z,100501
2018-12-22T19:14:42.000Z,100508
2018-12-22T19:16:42.000Z,100503
2018-12-22T19:18:27.000Z,100501
2018-12-22T19:19:42.000Z,100496
2018-12-22T19:21:42.000Z,100497
2018-12-22T19:22:42.000Z,100497
2018-12-22T19:23:42.000Z,100509
2018-12-22T19:25:42.000Z,100509
2018-12-22T19:27:42.000Z,100514
2018-12-22T19:29:42.000Z,100516
2018-12-22T19:30:42.000Z,100510
2018-12-22T19:32:27.000Z,100509
2018-12-22T19:33:42.000Z,100507
2018-12-22T19:35:42.000Z,100510
2018-12-22T19:36:42.000Z,100508
2018-12-22T19:38:42.000Z,100514
2018-12-22T19:40:42.000Z,100517
2018-12-22T19:42:27.000Z,100522
2018-12-22T19:43:42.000Z,100521
2018-12-22T19:44:42.000Z,100524
2018-12-22T19:46:42.000Z,100525
2018-12-22T19:48:42.000Z,100523
2018-12-22T19:50:42.000Z,100532
2018-12-22T19:52:27.000Z,100536
2018-12-22T19:53:42.000Z,100535
2018-12-22T19:54:42.000Z,100534
2018-12-22T19:56:42.000Z,100533
2018-12-22T19:58:42.000Z,100535
2018-12-22T20:00:42.000Z,100544
2018-12-22T20:01:42.000Z,100538
2018-12-22T20:03:42.000Z,100538
2018-12-22T20:05:42.000Z,100540
2018-12-22T20:07:42.000Z,100541
2018-12-22T20:09:42.000Z,100546
2018-12-22T20:11:42.000Z,100544
2018-12-22T20:12:42.000Z,100542
2018-12-22T20:14:42.000Z,100548
2018-12-22T20:16:42.000Z,100542
2018-12-22T20:18:42.000Z,100552
2018-12-22T20:20:27.000Z,100554
2018-12-22T20:22:42.000Z,100556
2018-12-22T20:24:27.000Z,100565
2018-12-22T20:25:27.000Z,100566
2018-12-22T20:26:42.000Z,100569
2018-12-22T20:27:42.000Z,100573
2018-12-22T20:29:42.000Z,100570
2018-12-22T20:31:42.000Z,100576
2018-12-22T20:33:42.000Z,100575
2018-12-22T20:35:42.000Z,100572
2018-12-22T20:37:42.000Z,100574
2018-12-22T20:39:42.000Z,100574
2018-12-22T20:40:42.000Z,100579
2018-12-22T20:41:42.000Z,100580
2018-12-22T20:43:27.000Z,100576
2018-12-22T20:44:42.000Z,100580
2018-12-22T20:45:42.000Z,100582
2018-12-22T20:47:42.000Z,100582
2018-12-22T20:49:42.000Z,100579
2018-12-22T20:50:42.000Z,100593
2018-12-22T20:52:27.000Z,100598
2018-12-22T20:53:42.000Z,100592
2018-12-22T20:55:42.000Z,100591
2018-12-22T20:56:42.000Z,100589
2018-12-22T20:58:42.000Z,100584